createdAt,value
2017-06-13T00:02:04.160Z,47.30
2017-06-13T00:04:31.710Z,47.40
2017-06-13T00:07:00.347Z,47.50
2017-06-13T00:09:27.882Z,47.40
2017-06-13T00:11:55.414Z,47.50
2017-06-13T00:14:23.259Z,47.60
2017-06-13T00:16:50.783Z,47.70
2017-06-13T00:19:18.308Z,47.80
2017-06-13T00:21:45.908Z,47.90
2017-06-13T00:24:13.444Z,47.80
2017-06-13T00:26:41.000Z,47.90
2017-06-13T00:29:08.570Z,47.90
2017-06-13T00:31:36.106Z,48.00
2017-06-13T00:34:04.432Z,48.30
2017-06-13T00:36:31.996Z,48.30
2017-06-13T00:38:59.553Z,48.40
2017-06-13T00:41:27.087Z,49.10
2017-06-13T00:43:54.663Z,48.40
2017-06-13T00:46:22.192Z,48.50
2017-06-13T00:48:49.725Z,48.70
2017-06-13T00:51:17.331Z,48.80
2017-06-13T00:53:44.888Z,49.00
2017-06-13T00:56:12.442Z,49.10
2017-06-13T00:58:40.367Z,49.30
2017-06-13T01:01:07.913Z,49.30
2017-06-13T01:03:35.537Z,49.50
2017-06-13T01:06:03.491Z,49.60
2017-06-13T01:08:31.024Z,49.70
2017-06-13T01:10:58.630Z,49.80
2017-06-13T01:13:26.343Z,50.00
2017-06-13T01:15:53.871Z,50.00
2017-06-13T01:18:21.407Z,50.00
2017-06-13T01:20:48.973Z,50.10
2017-06-13T01:23:16.497Z,50.20
2017-06-13T01:25:44.025Z,50.30
2017-06-13T01:28:11.894Z,50.40
2017-06-13T01:30:39.437Z,50.50
2017-06-13T01:33:06.962Z,50.70
2017-06-13T01:35:35.299Z,50.80
2017-06-13T01:38:02.828Z,50.80
2017-06-13T01:40:30.360Z,50.90
2017-06-13T01:42:58.685Z,51.70
2017-06-13T01:45:26.244Z,51.10
2017-06-13T01:47:53.774Z,51.30
2017-06-13T01:50:21.600Z,51.30
2017-06-13T01:52:49.129Z,51.40
2017-06-13T01:55:16.660Z,51.50
2017-06-13T01:57:44.217Z,51.60
2017-06-13T02:00:11.744Z,51.70
2017-06-13T02:02:39.271Z,51.90
2017-06-13T02:05:06.843Z,51.90
2017-06-13T02:07:34.368Z,52.00
2017-06-13T02:10:01.885Z,52.00
2017-06-13T02:12:29.445Z,52.30
2017-06-13T02:14:56.975Z,52.40
2017-06-13T02:17:24.514Z,52.60
2017-06-13T02:19:52.337Z,52.50
2017-06-13T02:22:20.624Z,53.20
2017-06-13T02:24:48.146Z,52.80
2017-06-13T02:27:15.720Z,53.00
2017-06-13T02:29:43.262Z,53.20
2017-06-13T02:32:10.804Z,53.20
2017-06-13T02:34:38.628Z,53.20
2017-06-13T02:37:06.172Z,53.30
2017-06-13T02:39:33.696Z,53.30
2017-06-13T02:42:01.293Z,53.40
2017-06-13T02:44:28.821Z,53.40
2017-06-13T02:46:56.347Z,53.40
2017-06-13T02:49:23.919Z,53.60
2017-06-13T02:51:51.479Z,53.60
2017-06-13T02:54:19.017Z,53.60
2017-06-13T02:56:47.648Z,53.70
2017-06-13T02:59:15.180Z,53.70
2017-06-13T03:01:42.760Z,53.70
2017-06-13T03:04:10.344Z,53.80
2017-06-13T03:06:37.879Z,53.80
2017-06-13T03:09:05.409Z,53.80
2017-06-13T03:11:33.986Z,54.00
2017-06-13T03:14:02.276Z,54.00
2017-06-13T03:16:29.819Z,54.00
2017-06-13T03:18:57.456Z,54.10
2017-06-13T03:21:25.006Z,54.10
2017-06-13T03:23:52.520Z,54.20
2017-06-13T03:26:20.090Z,54.10
2017-06-13T03:28:47.640Z,54.30
2017-06-13T03:31:15.175Z,54.40
2017-06-13T03:33:42.768Z,54.40
2017-06-13T03:36:10.305Z,54.50
2017-06-13T03:38:37.846Z,54.50
2017-06-13T03:41:05.420Z,54.50
2017-06-13T03:43:33.732Z,54.50
2017-06-13T03:46:01.254Z,54.50
2017-06-13T03:48:28.826Z,54.40
2017-06-13T03:50:57.125Z,54.30
2017-06-13T03:53:24.644Z,54.20
2017-06-13T03:55:52.237Z,54.10
2017-06-13T03:58:19.784Z,54.00
2017-06-13T04:00:48.073Z,53.70
2017-06-13T04:03:15.659Z,53.70
2017-06-13T04:05:43.221Z,53.70
2017-06-13T04:08:10.744Z,53.50
2017-06-13T04:10:38.313Z,53.50
2017-06-13T04:13:05.869Z,53.50
2017-06-13T04:15:33.404Z,53.40
2017-06-13T04:18:00.991Z,53.40
2017-06-13T04:20:28.532Z,53.30
2017-06-13T04:22:56.078Z,53.20
2017-06-13T04:25:23.697Z,53.10
2017-06-13T04:27:51.244Z,53.10
2017-06-13T04:30:18.787Z,52.90
2017-06-13T04:32:47.194Z,53.00
2017-06-13T04:35:14.737Z,53.00
2017-06-13T04:37:42.272Z,52.80
2017-06-13T04:40:09.872Z,52.80
2017-06-13T04:42:37.419Z,52.70
2017-06-13T04:45:04.941Z,52.70
2017-06-13T04:47:32.881Z,52.60
2017-06-13T04:50:00.434Z,52.50
2017-06-13T04:52:27.968Z,52.50
2017-06-13T04:54:55.540Z,52.50
2017-06-13T04:57:23.078Z,52.50
2017-06-13T04:59:51.365Z,53.10
2017-06-13T05:02:18.936Z,52.50
2017-06-13T05:04:46.466Z,52.60
2017-06-13T05:07:14.759Z,52.40
2017-06-13T05:09:42.339Z,52.40
2017-06-13T05:12:09.879Z,52.30
2017-06-13T05:14:37.438Z,52.20
2017-06-13T05:17:06.106Z,52.40
2017-06-13T05:19:33.627Z,52.40
2017-06-13T05:22:01.176Z,52.40
2017-06-13T05:24:28.771Z,52.20
2017-06-13T05:26:56.396Z,52.10
2017-06-13T05:29:23.936Z,52.80
2017-06-13T05:31:51.528Z,52.30
2017-06-13T05:34:19.064Z,52.00
2017-06-13T05:36:46.590Z,51.90
2017-06-13T05:39:14.170Z,52.00
2017-06-13T05:41:41.727Z,51.90
2017-06-13T05:44:10.035Z,51.80
2017-06-13T05:46:37.620Z,51.80
2017-06-13T05:49:05.410Z,51.70
2017-06-13T05:51:33.040Z,52.00
2017-06-13T06:02:09.945Z,51.50
2017-06-13T06:04:37.538Z,51.50
2017-06-13T06:07:05.067Z,51.40
2017-06-13T06:09:32.637Z,51.10
2017-06-13T06:12:00.742Z,50.70
2017-06-13T06:14:28.285Z,50.70
2017-06-13T06:16:55.840Z,50.50
2017-06-13T06:19:23.456Z,50.40
2017-06-13T06:21:54.513Z,50.60
2017-06-13T06:24:22.220Z,50.70
2017-06-13T06:26:50.207Z,50.70
2017-06-13T06:29:17.993Z,50.50
2017-06-13T06:31:45.839Z,50.40
2017-06-13T06:34:13.740Z,50.40
2017-06-13T06:36:41.341Z,50.50
2017-06-13T06:39:08.870Z,50.30
2017-06-13T06:41:37.470Z,50.20
2017-06-13T06:44:05.420Z,50.20
2017-06-13T06:46:32.955Z,50.10
2017-06-13T06:49:00.816Z,50.00
2017-06-13T06:51:28.377Z,50.00
2017-06-13T06:53:56.013Z,49.60
2017-06-13T06:56:23.637Z,49.40
2017-06-13T06:58:51.188Z,49.50
2017-06-13T07:01:19.521Z,49.50
2017-06-13T07:03:47.096Z,49.50
2017-06-13T07:06:14.736Z,49.40
2017-06-13T07:08:42.351Z,49.60
2017-06-13T07:11:10.190Z,49.60
2017-06-13T07:13:38.888Z,49.70
2017-06-13T07:16:06.653Z,49.80
2017-06-13T07:18:34.257Z,49.70
2017-06-13T07:21:01.808Z,49.60
2017-06-13T07:23:29.341Z,49.40
2017-06-13T07:25:57.695Z,49.10
2017-06-13T07:28:25.234Z,49.10
2017-06-13T07:30:52.800Z,49.10
2017-06-13T07:33:20.440Z,48.70
2017-06-13T07:35:47.984Z,48.60
2017-06-13T07:38:15.506Z,48.50
2017-06-13T07:40:43.088Z,48.50
2017-06-13T07:43:10.677Z,48.80
2017-06-13T07:45:38.200Z,48.90
2017-06-13T07:48:05.765Z,48.70
2017-06-13T07:50:33.304Z,47.90
2017-06-13T07:53:00.839Z,47.50
2017-06-13T07:55:28.421Z,47.50
2017-06-13T07:57:55.953Z,47.70
2017-06-13T08:00:23.477Z,47.40
2017-06-13T08:02:51.074Z,47.20
2017-06-13T08:05:19.049Z,47.10
2017-06-13T08:07:46.618Z,47.10
2017-06-13T08:10:14.223Z,46.50
2017-06-13T08:12:41.768Z,46.70
2017-06-13T08:15:09.305Z,47.00
2017-06-13T08:17:37.163Z,46.70
2017-06-13T08:20:04.691Z,46.60
2017-06-13T08:22:32.211Z,46.60
2017-06-13T08:24:59.791Z,46.50
2017-06-13T08:27:28.110Z,46.20
2017-06-13T08:29:55.661Z,46.30
2017-06-13T08:32:23.270Z,46.30
2017-06-13T08:34:50.810Z,46.40
2017-06-13T08:37:18.338Z,46.30
2017-06-13T08:39:45.922Z,46.10
2017-06-13T08:42:13.494Z,46.00
2017-06-13T08:44:41.022Z,45.70
2017-06-13T08:47:08.602Z,45.20
2017-06-13T08:49:36.160Z,45.00
2017-06-13T08:52:03.701Z,45.00
2017-06-13T08:54:31.275Z,45.20
2017-06-13T08:56:58.964Z,45.70
2017-06-13T08:59:26.626Z,44.70
2017-06-13T09:01:54.220Z,44.60
2017-06-13T09:04:22.552Z,44.50
2017-06-13T09:06:50.245Z,44.50
2017-06-13T09:09:19.186Z,44.60
2017-06-13T09:11:46.881Z,44.40
2017-06-13T09:14:14.489Z,44.60
2017-06-13T09:16:42.073Z,44.70
2017-06-13T09:19:09.612Z,44.50
2017-06-13T09:21:37.136Z,44.20
2017-06-13T09:24:04.775Z,43.90
2017-06-13T09:26:32.319Z,43.60
2017-06-13T09:28:59.866Z,43.40
2017-06-13T09:31:27.457Z,43.70
2017-06-13T09:33:55.688Z,44.10
2017-06-13T09:36:24.006Z,45.00
2017-06-13T09:38:52.950Z,45.00
2017-06-13T09:41:20.556Z,45.40
2017-06-13T09:43:48.089Z,45.40
2017-06-13T09:46:16.466Z,44.90
2017-06-13T09:48:43.998Z,44.80
2017-06-13T09:51:12.214Z,44.60
2017-06-13T09:53:39.785Z,44.70
2017-06-13T09:56:07.397Z,44.20
2017-06-13T09:58:34.941Z,44.30
2017-06-13T10:01:02.530Z,43.40
2017-06-13T10:03:30.067Z,43.20
2017-06-13T10:05:57.611Z,43.00
2017-06-13T10:08:25.201Z,43.00
2017-06-13T10:10:52.732Z,42.60
2017-06-13T10:13:20.274Z,42.80
2017-06-13T10:15:47.853Z,42.90
2017-06-13T10:18:15.381Z,42.80
2017-06-13T10:20:42.912Z,42.60
2017-06-13T10:23:10.480Z,42.60
2017-06-13T10:25:38.045Z,42.60
2017-06-13T10:28:06.343Z,42.10
2017-06-13T10:30:33.932Z,42.10
2017-06-13T10:33:01.644Z,42.10
2017-06-13T10:35:29.305Z,42.70
2017-06-13T10:37:56.897Z,42.00
2017-06-13T10:40:24.440Z,42.00
2017-06-13T10:42:52.003Z,42.20
2017-06-13T10:45:21.625Z,42.20
2017-06-13T10:47:49.173Z,42.50
2017-06-13T10:50:20.487Z,42.50
2017-06-13T10:52:48.094Z,42.60
2017-06-13T10:55:15.639Z,42.60
2017-06-13T10:57:43.207Z,42.20
2017-06-13T11:00:10.800Z,41.80
2017-06-13T11:02:38.344Z,41.70
2017-06-13T11:05:05.915Z,41.60
2017-06-13T11:07:33.499Z,41.70
2017-06-13T11:10:01.025Z,41.70
2017-06-13T11:12:28.555Z,41.90
2017-06-13T11:14:56.898Z,42.60
2017-06-13T11:17:24.430Z,41.90
2017-06-13T11:19:52.094Z,41.90
2017-06-13T11:22:19.696Z,42.20
2017-06-13T11:24:47.238Z,42.70
2017-06-13T11:27:15.027Z,43.10
2017-06-13T11:29:42.600Z,43.30
2017-06-13T11:32:10.919Z,42.70
2017-06-13T11:34:38.460Z,42.60
2017-06-13T11:37:06.037Z,42.60
2017-06-13T11:39:33.588Z,42.70
2017-06-13T11:42:01.125Z,42.60
2017-06-13T11:44:28.721Z,42.50
2017-06-13T11:46:56.259Z,41.70
2017-06-13T11:49:23.790Z,41.60
2017-06-13T11:51:51.387Z,41.80
2017-06-13T11:54:18.945Z,41.90
2017-06-13T11:56:46.585Z,41.60
2017-06-13T11:59:14.913Z,42.20
2017-06-13T12:01:42.468Z,42.20
2017-06-13T12:04:10.001Z,42.50
2017-06-13T12:06:37.901Z,42.70
2017-06-13T12:09:05.459Z,42.90
2017-06-13T12:11:33.005Z,43.20
2017-06-13T12:14:00.593Z,43.20
2017-06-13T12:16:28.133Z,43.00
2017-06-13T12:18:55.767Z,42.60
2017-06-13T12:21:24.234Z,42.30
2017-06-13T12:23:51.771Z,42.10
2017-06-13T12:26:19.285Z,42.20
2017-06-13T12:28:46.884Z,41.90
2017-06-13T12:31:14.422Z,41.70
2017-06-13T12:33:41.947Z,41.70
2017-06-13T12:36:09.513Z,42.00
2017-06-13T12:38:37.045Z,42.20
2017-06-13T12:41:05.450Z,42.70
2017-06-13T12:43:33.583Z,43.10
2017-06-13T12:46:01.180Z,43.50
2017-06-13T12:48:28.717Z,43.80
2017-06-13T12:50:57.207Z,44.10
2017-06-13T12:53:25.496Z,44.50
2017-06-13T12:55:53.142Z,44.20
2017-06-13T12:58:21.616Z,45.10
2017-06-13T13:00:49.196Z,44.60
2017-06-13T13:03:16.768Z,44.60
2017-06-13T13:05:44.505Z,44.90
2017-06-13T13:08:12.814Z,44.40
2017-06-13T13:10:40.366Z,44.60
2017-06-13T13:13:07.976Z,44.50
2017-06-13T13:15:35.556Z,44.20
2017-06-13T13:18:24.207Z,43.70
2017-06-13T13:21:00.179Z,43.70
2017-06-13T13:23:27.983Z,44.10
2017-06-13T13:25:55.807Z,44.30
2017-06-13T13:28:24.801Z,43.20
2017-06-13T13:30:52.484Z,43.50
2017-06-13T13:33:25.413Z,43.50
2017-06-13T13:36:02.235Z,43.80
2017-06-13T13:38:29.773Z,43.80
2017-06-13T13:41:00.622Z,44.40
2017-06-13T13:43:28.388Z,44.20
2017-06-13T13:45:56.936Z,44.60
2017-06-13T13:48:24.514Z,44.70
2017-06-13T13:50:54.709Z,44.40
2017-06-13T13:53:22.437Z,44.50
2017-06-13T13:55:50.943Z,44.70
2017-06-13T13:58:18.520Z,44.50
2017-06-13T14:00:47.457Z,44.90
2017-06-13T14:03:16.955Z,44.60
2017-06-13T14:05:52.217Z,44.80
2017-06-13T14:08:19.892Z,44.80
2017-06-13T14:10:48.202Z,44.30
2017-06-13T14:13:16.498Z,44.30
2017-06-13T14:15:44.086Z,44.50
2017-06-13T14:21:14.517Z,43.30
2017-06-13T14:23:42.879Z,42.50
2017-06-13T14:26:11.423Z,42.80
2017-06-13T14:28:39.140Z,42.30
2017-06-13T14:31:06.689Z,42.50
2017-06-13T14:33:34.262Z,42.60
2017-06-13T14:36:01.817Z,42.50
2017-06-13T14:38:29.352Z,42.70
2017-06-13T14:40:56.914Z,42.70
2017-06-13T14:43:24.453Z,42.80
2017-06-13T14:45:52.744Z,42.80
2017-06-13T14:48:20.329Z,42.70
2017-06-13T14:50:48.865Z,42.70
2017-06-13T14:53:17.183Z,42.90
2017-06-13T14:55:44.844Z,42.90
2017-06-13T15:01:20.363Z,42.40
2017-06-13T15:12:53.882Z,41.70
2017-06-13T15:18:29.543Z,40.10
2017-06-13T15:20:57.076Z,40.20
2017-06-13T15:23:24.594Z,40.20
2017-06-13T15:25:52.233Z,40.00
2017-06-13T15:30:58.528Z,39.90
2017-06-13T15:33:28.851Z,39.90
2017-06-13T15:35:57.212Z,40.10
2017-06-13T15:38:25.604Z,39.80
2017-06-13T15:40:53.410Z,40.40
2017-06-13T15:43:21.773Z,40.00
2017-06-13T15:45:49.367Z,40.00
2017-06-13T15:48:17.685Z,40.00
2017-06-13T15:50:45.194Z,39.90
2017-06-13T15:53:13.540Z,40.20
2017-06-13T15:55:41.072Z,40.20
2017-06-13T15:58:08.646Z,40.30
2017-06-13T16:00:37.564Z,40.50
2017-06-13T16:03:05.106Z,40.70
2017-06-13T16:05:32.669Z,40.80
2017-06-13T16:10:37.149Z,41.00
2017-06-13T16:13:05.051Z,41.10
2017-06-13T16:15:32.589Z,41.20
2017-06-13T16:18:01.395Z,41.00
2017-06-13T16:23:13.952Z,41.40
2017-06-13T16:25:47.776Z,41.00
2017-06-13T16:28:18.502Z,41.00
2017-06-13T16:30:50.323Z,40.60
2017-06-13T16:33:17.903Z,40.10
2017-06-13T16:35:45.472Z,38.90
2017-06-13T16:38:13.054Z,37.20
2017-06-13T16:40:40.581Z,37.00
2017-06-13T16:43:26.608Z,37.30
2017-06-13T16:45:54.223Z,37.40
2017-06-13T16:48:23.493Z,38.00
2017-06-13T16:50:52.640Z,38.40
2017-06-13T16:53:20.168Z,38.70
2017-06-13T16:55:48.521Z,38.60
2017-06-13T16:58:16.170Z,38.60
2017-06-13T17:00:43.724Z,38.80
2017-06-13T17:03:11.246Z,39.00
2017-06-13T17:05:54.029Z,39.20
2017-06-13T17:08:21.576Z,39.50
2017-06-13T17:10:49.179Z,39.70
2017-06-13T17:13:16.786Z,40.00
2017-06-13T17:15:44.339Z,40.20
2017-06-13T17:18:11.885Z,40.40
2017-06-13T17:20:39.750Z,40.40
2017-06-13T17:23:08.142Z,40.40
2017-06-13T17:25:35.681Z,41.00
2017-06-13T17:28:03.380Z,40.80
2017-06-13T17:30:30.909Z,40.90
2017-06-13T17:32:58.493Z,41.10
2017-06-13T17:35:29.338Z,41.20
2017-06-13T17:37:57.083Z,41.50
2017-06-13T17:40:25.586Z,41.50
2017-06-13T17:42:53.183Z,41.40
2017-06-13T17:45:22.598Z,41.60
2017-06-13T17:47:55.419Z,42.00
2017-06-13T17:50:25.127Z,42.20
2017-06-13T17:52:53.962Z,42.60
2017-06-13T17:58:29.610Z,42.50
2017-06-13T18:00:59.659Z,42.90
2017-06-13T18:03:28.209Z,43.00
2017-06-13T18:05:57.637Z,43.20
2017-06-13T18:08:30.856Z,43.20
2017-06-13T18:11:01.301Z,43.40
2017-06-13T18:13:39.369Z,43.80
2017-06-13T18:16:09.264Z,44.00
2017-06-13T18:18:37.119Z,44.40
2017-06-13T18:21:07.448Z,44.50
2017-06-13T18:23:35.196Z,44.00
2017-06-13T18:26:04.240Z,43.70
2017-06-13T18:28:35.365Z,43.10
2017-06-13T18:31:03.082Z,43.10
2017-06-13T18:33:33.590Z,43.10
2017-06-13T18:36:04.058Z,43.60
2017-06-13T18:50:52.540Z,43.70
2017-06-13T18:53:21.016Z,43.50
2017-06-13T18:55:50.692Z,44.00
2017-06-13T18:58:34.857Z,44.50
2017-06-13T19:03:55.368Z,44.70
2017-06-13T19:06:22.959Z,45.00
2017-06-13T19:08:50.530Z,45.10
2017-06-13T19:11:18.919Z,45.40
2017-06-13T19:13:46.487Z,45.30
2017-06-13T19:16:14.054Z,45.30
2017-06-13T19:18:41.647Z,45.20
2017-06-13T19:21:09.215Z,45.20
2017-06-13T19:23:36.821Z,45.20
2017-06-13T19:26:04.438Z,45.30
2017-06-13T19:28:32.403Z,45.50
2017-06-13T19:31:00.035Z,45.60
2017-06-13T19:33:27.662Z,45.70
2017-06-13T19:35:55.257Z,45.80
2017-06-13T19:38:22.886Z,46.00
2017-06-13T19:40:50.602Z,46.10
2017-06-13T19:43:18.230Z,46.20
2017-06-13T19:45:47.711Z,46.30
2017-06-13T19:48:15.737Z,46.40
2017-06-13T19:50:43.282Z,46.70
2017-06-13T19:53:10.903Z,46.70
2017-06-13T19:55:38.533Z,46.70
2017-06-13T19:58:06.132Z,46.90
2017-06-13T20:00:33.668Z,47.10
2017-06-13T20:03:01.265Z,47.20
2017-06-13T20:05:29.612Z,47.40
2017-06-13T20:07:57.176Z,47.40
2017-06-13T20:10:24.886Z,47.60
2017-06-13T20:12:52.499Z,47.70
2017-06-13T20:15:20.123Z,48.00
2017-06-13T20:17:47.760Z,48.00
2017-06-13T20:20:15.418Z,48.30
2017-06-13T20:22:43.142Z,48.50
2017-06-13T20:25:11.169Z,48.80
2017-06-13T20:27:38.770Z,49.00
2017-06-13T20:30:06.544Z,49.10
2017-06-13T20:32:34.200Z,49.40
2017-06-13T20:35:07.502Z,49.60
2017-06-13T20:37:35.082Z,49.70
2017-06-13T20:40:03.420Z,49.80
2017-06-13T20:42:31.440Z,50.10
2017-06-13T20:44:59.863Z,50.50
2017-06-13T20:47:27.406Z,50.50
2017-06-13T20:49:54.944Z,50.60
2017-06-13T20:52:23.313Z,50.90
2017-06-13T20:54:51.669Z,51.60
2017-06-13T20:57:19.210Z,51.00
2017-06-13T20:59:46.894Z,51.10
2017-06-13T21:02:14.463Z,51.20
2017-06-13T21:04:42.114Z,51.30
2017-06-13T21:07:09.741Z,51.40
2017-06-13T21:09:37.342Z,51.40
2017-06-13T21:12:09.677Z,51.60
2017-06-13T21:14:37.342Z,51.70
2017-06-13T21:17:04.906Z,51.90
2017-06-13T21:19:32.583Z,51.90
2017-06-13T21:22:00.168Z,52.00
2017-06-13T21:24:27.762Z,52.20
2017-06-13T21:26:55.511Z,52.30
2017-06-13T21:29:23.072Z,52.50
2017-06-13T21:31:50.860Z,52.50
2017-06-13T21:34:18.561Z,52.10
2017-06-13T21:36:46.110Z,52.60
2017-06-13T21:39:13.644Z,52.80
2017-06-13T21:41:41.220Z,52.80
2017-06-13T21:44:08.772Z,53.00
2017-06-13T21:46:36.402Z,53.10
2017-06-13T21:49:04.783Z,53.30
2017-06-13T21:51:33.094Z,53.40
2017-06-13T21:54:00.655Z,53.40
2017-06-13T21:56:28.266Z,53.40
2017-06-13T21:58:55.804Z,53.70
2017-06-13T22:01:23.438Z,53.50
2017-06-13T22:03:51.029Z,53.60
2017-06-13T22:06:18.576Z,53.70
2017-06-13T22:08:46.124Z,53.90
2017-06-13T22:11:13.697Z,53.90
2017-06-13T22:13:41.253Z,54.20
2017-06-13T22:16:08.801Z,54.30
2017-06-13T22:18:36.382Z,54.30
2017-06-13T22:21:03.941Z,54.40
2017-06-13T22:23:31.505Z,54.60
2017-06-13T22:25:59.075Z,54.70
2017-06-13T22:28:26.620Z,54.90
2017-06-13T22:30:54.153Z,55.00
2017-06-13T22:33:21.778Z,55.10
2017-06-13T22:35:49.345Z,55.30
2017-06-13T22:38:17.660Z,55.20
2017-06-13T22:40:45.231Z,55.20
2017-06-13T22:43:12.771Z,55.30
2017-06-13T22:45:40.302Z,55.30
2017-06-13T22:48:07.887Z,55.40
2017-06-13T22:50:36.302Z,55.30
2017-06-13T22:53:03.825Z,55.40
2017-06-13T22:55:32.192Z,55.50
2017-06-13T22:57:59.736Z,55.50
2017-06-13T23:00:27.264Z,55.50
2017-06-13T23:02:54.853Z,55.60
2017-06-13T23:05:22.397Z,55.50
2017-06-13T23:07:49.969Z,55.60
2017-06-13T23:10:17.565Z,55.60
2017-06-13T23:12:45.102Z,55.70
2017-06-13T23:15:12.637Z,55.90
2017-06-13T23:17:40.222Z,55.90
2017-06-13T23:20:07.763Z,56.00
2017-06-13T23:22:35.316Z,56.20
2017-06-13T23:25:02.909Z,56.30
2017-06-13T23:27:30.432Z,56.40
2017-06-13T23:29:57.986Z,56.50
2017-06-13T23:32:25.594Z,56.50
2017-06-13T23:34:53.116Z,56.50
2017-06-13T23:37:20.655Z,56.50
2017-06-13T23:39:48.224Z,56.70
2017-06-13T23:42:15.760Z,56.70
2017-06-13T23:44:43.301Z,56.70
2017-06-13T23:47:11.653Z,56.90
2017-06-13T23:49:39.184Z,57.00
2017-06-13T23:52:06.738Z,57.00
2017-06-13T23:54:34.365Z,57.00
2017-06-13T23:57:02.655Z,56.90
2017-06-13T23:59:30.203Z,56.90
